Time;durP1;ratioP1;P1;durP2;ratioP2;P2;SDS_P1;SDS_P2;PMS_P1;PMS_P2;Temp;Humidity;BMP_temperature;BMP_pressure;BME280_temperature;BME280_humidity;BME280_pressure;Samples;Min_cycle;Max_cycle;Signal;HPM_P1;HPM_P2
2022/03/07 00:00:08;;;;;;;397.70;110.67;;;;;;;2.28;100.00;99585.75;342522;28;1314;-69
2022/03/07 00:00:19;;;;;;;401.27;112.65;;;;;;;2.29;100.00;99584.03;341150;28;804;-69
2022/03/07 00:00:30;;;;;;;399.55;115.40;;;;;;;2.29;100.00;99587.47;342746;28;1413;-69
2022/03/07 00:00:40;;;;;;;398.60;115.60;;;;;;;2.29;100.00;99584.91;341024;28;1346;-70
2022/03/07 00:00:51;;;;;;;395.85;114.35;;;;;;;2.27;100.00;99581.47;342687;28;1591;-70
2022/03/07 00:01:02;;;;;;;398.13;113.80;;;;;;;2.28;100.00;99583.19;342446;28;835;-69
2022/03/07 00:01:13;;;;;;;396.42;112.72;;;;;;;2.28;100.00;99585.75;342392;28;980;-69
2022/03/07 00:01:25;;;;;;;399.20;113.00;;;;;;;2.29;100.00;99586.63;342191;28;961;-69
2022/03/07 00:01:35;;;;;;;392.48;110.82;;;;;;;2.27;100.00;99581.47;340376;28;1419;-70
2022/03/07 00:01:46;;;;;;;394.47;111.60;;;;;;;2.29;100.00;99584.91;342332;28;1942;-69
2022/03/07 00:01:56;;;;;;;392.02;111.85;;;;;;;2.29;100.00;99584.03;342631;28;1406;-69
2022/03/07 00:02:07;;;;;;;393.67;112.47;;;;;;;2.28;100.00;99580.59;342586;28;1455;-70
2022/03/07 00:02:18;;;;;;;392.20;112.15;;;;;;;2.28;100.00;99583.19;342754;28;1191;-69
2022/03/07 00:02:28;;;;;;;394.87;113.17;;;;;;;2.29;100.00;99582.31;340851;28;1058;-69
2022/03/07 00:02:39;;;;;;;394.53;112.30;;;;;;;2.28;100.00;99583.19;343724;28;1288;-69
2022/03/07 00:02:49;;;;;;;395.87;111.90;;;;;;;2.28;100.00;99572.84;343777;28;810;-69
2022/03/07 00:03:00;;;;;;;394.02;112.10;;;;;;;2.29;100.00;99579.72;341247;28;1405;-69
2022/03/07 00:03:10;;;;;;;397.40;112.40;;;;;;;2.28;100.00;99580.59;339705;29;1839;-69
2022/03/07 00:03:20;;;;;;;396.98;112.80;;;;;;;2.29;100.00;99577.16;343276;28;1906;-69
2022/03/07 00:03:31;;;;;;;398.77;113.13;;;;;;;2.30;100.00;99581.44;340456;28;1744;-69
2022/03/07 00:03:41;;;;;;;397.55;114.28;;;;;;;2.30;100.00;99581.44;341817;28;1362;-69
2022/03/07 00:03:55;;;;;;;397.03;115.27;;;;;;;2.31;100.00;99583.16;338891;28;1176;-69
2022/03/07 00:04:05;;;;;;;399.23;114.90;;;;;;;2.31;100.00;99578.00;340214;28;931;-69
2022/03/07 00:04:17;;;;;;;397.97;113.27;;;;;;;2.33;100.00;99586.59;342311;28;1371;-69
2022/03/07 00:04:27;;;;;;;395.48;112.47;;;;;;;2.33;100.00;99580.56;343369;28;1518;-70
2022/03/07 00:04:38;;;;;;;389.37;110.10;;;;;;;2.33;100.00;99580.56;344135;28;1377;-69
2022/03/07 00:04:48;;;;;;;386.65;109.40;;;;;;;2.32;100.00;99582.28;341528;28;1475;-69
2022/03/07 00:04:59;;;;;;;385.73;108.77;;;;;;;2.30;100.00;99581.44;340707;28;1630;-69
2022/03/07 00:05:09;;;;;;;390.75;111.72;;;;;;;2.30;100.00;99586.63;339440;28;1311;-69
2022/03/07 00:05:19;;;;;;;396.10;113.03;;;;;;;2.30;100.00;99576.28;341288;28;825;-69
2022/03/07 00:05:30;;;;;;;396.48;113.50;;;;;;;2.30;100.00;99580.59;342391;28;1273;-69
2022/03/07 00:05:40;;;;;;;395.77;112.93;;;;;;;2.30;100.00;99578.88;338822;29;914;-69
2022/03/07 00:05:51;;;;;;;395.40;112.88;;;;;;;2.30;100.00;99585.75;341322;28;880;-69
2022/03/07 00:06:01;;;;;;;398.70;112.60;;;;;;;2.30;100.00;99580.59;342522;28;1261;-69
2022/03/07 00:06:11;;;;;;;394.80;111.22;;;;;;;2.30;100.00;99589.19;339825;29;1901;-69
2022/03/07 00:06:22;;;;;;;394.17;110.87;;;;;;;2.33;100.00;99586.59;338677;29;1499;-69
2022/03/07 00:06:33;;;;;;;392.08;111.15;;;;;;;2.31;100.00;99578.00;342617;28;918;-69
2022/03/07 00:06:44;;;;;;;395.93;112.10;;;;;;;2.31;100.00;99588.31;341169;28;1316;-69
2022/03/07 00:06:54;;;;;;;398.33;113.32;;;;;;;2.29;100.00;99579.72;342664;28;882;-70
2022/03/07 00:07:05;;;;;;;399.80;113.03;;;;;;;2.33;100.00;99580.56;340776;28;889;-70
2022/03/07 00:07:15;;;;;;;401.00;113.32;;;;;;;2.34;100.00;99587.44;343643;28;1224;-69
2022/03/07 00:07:25;;;;;;;397.93;113.33;;;;;;;2.33;100.00;99586.59;343957;28;901;-69
2022/03/07 00:07:36;;;;;;;401.10;114.28;;;;;;;2.34;100.00;99582.28;344665;28;1019;-69
2022/03/07 00:07:46;;;;;;;397.10;113.90;;;;;;;2.33;100.00;99586.59;342572;28;880;-69
2022/03/07 00:07:57;;;;;;;398.65;114.05;;;;;;;2.32;100.00;99584.88;341254;28;913;-69
2022/03/07 00:08:08;;;;;;;400.00;113.43;;;;;;;2.34;100.00;99583.13;340873;28;1434;-69
2022/03/07 00:08:19;;;;;;;404.33;112.82;;;;;;;2.32;100.00;99584.03;340773;28;1896;-69
2022/03/07 00:08:29;;;;;;;403.65;112.75;;;;;;;2.32;100.00;99586.59;341692;28;869;-69
2022/03/07 00:08:39;;;;;;;401.02;112.43;;;;;;;2.30;100.00;99586.63;339305;28;826;-69
2022/03/07 00:08:50;;;;;;;399.90;113.00;;;;;;;2.33;100.00;99588.31;337591;29;2147;-69
2022/03/07 00:09:00;;;;;;;400.70;113.88;;;;;;;2.30;100.00;99584.03;339121;29;869;-69
2022/03/07 00:09:11;;;;;;;399.27;113.90;;;;;;;2.31;100.00;99588.31;341313;28;1214;-69
2022/03/07 00:09:21;;;;;;;397.98;114.47;;;;;;;2.32;100.00;99587.47;343639;28;1379;-69
2022/03/07 00:09:32;;;;;;;393.63;112.33;;;;;;;2.30;100.00;99581.44;343963;28;889;-69
2022/03/07 00:09:42;;;;;;;394.88;112.88;;;;;;;2.31;100.00;99583.16;342431;28;1217;-69
2022/03/07 00:09:53;;;;;;;395.57;112.30;;;;;;;2.32;100.00;99590.03;342742;28;826;-69
2022/03/07 00:10:03;;;;;;;395.85;112.38;;;;;;;2.32;100.00;99584.88;341600;28;1402;-69
2022/03/07 00:10:14;;;;;;;390.17;109.93;;;;;;;2.32;100.00;99579.72;343211;28;1543;-69
2022/03/07 00:10:24;;;;;;;390.38;110.00;;;;;;;2.32;100.00;99584.88;343321;28;902;-69
2022/03/07 00:10:35;;;;;;;391.70;110.80;;;;;;;2.30;100.00;99578.88;340951;28;2004;-69
2022/03/07 00:10:45;;;;;;;396.97;111.87;;;;;;;2.32;100.00;99584.88;342691;28;873;-69
2022/03/07 00:10:55;;;;;;;393.73;110.33;;;;;;;2.32;100.00;99584.88;341994;28;1373;-69
2022/03/07 00:11:06;;;;;;;394.37;109.80;;;;;;;2.32;100.00;99579.72;340938;28;1419;-69
2022/03/07 00:11:17;;;;;;;391.23;108.78;;;;;;;2.33;100.00;99580.56;338421;28;1240;-69
2022/03/07 00:11:28;;;;;;;390.60;108.85;;;;;;;2.34;100.00;99587.44;339472;29;1292;-69
2022/03/07 00:11:39;;;;;;;390.10;109.40;;;;;;;2.31;100.00;99585.75;340043;29;1444;-69
2022/03/07 00:11:49;;;;;;;388.25;109.68;;;;;;;2.31;100.00;99584.88;338697;29;1253;-69
2022/03/07 00:11:59;;;;;;;389.10;110.60;;;;;;;2.31;100.00;99580.59;339626;29;1194;-69
2022/03/07 00:12:10;;;;;;;385.07;110.70;;;;;;;2.31;100.00;99588.31;342449;28;1549;-68
2022/03/07 00:12:20;;;;;;;389.05;111.82;;;;;;;2.32;100.00;99590.03;341019;28;910;-68
2022/03/07 00:12:31;;;;;;;392.23;110.90;;;;;;;2.33;100.00;99585.72;342485;28;938;-68
2022/03/07 00:12:41;;;;;;;391.05;109.40;;;;;;;2.33;100.00;99585.72;342728;28;1324;-69
2022/03/07 00:12:51;;;;;;;386.27;108.37;;;;;;;2.34;100.00;99588.31;338479;28;1421;-69
2022/03/07 00:13:02;;;;;;;383.40;110.22;;;;;;;2.33;100.00;99580.56;340309;28;2044;-69
2022/03/07 00:13:13;;;;;;;387.83;112.78;;;;;;;2.32;100.00;99578.84;342456;28;846;-69
2022/03/07 00:13:23;;;;;;;394.17;112.73;;;;;;;2.30;100.00;99586.63;341232;28;869;-69
2022/03/07 00:13:34;;;;;;;392.77;109.22;;;;;;;2.29;100.00;99577.16;340479;28;889;-69
2022/03/07 00:13:45;;;;;;;390.90;108.85;;;;;;;2.28;100.00;99578.03;337815;28;1294;-70
2022/03/07 00:13:55;;;;;;;387.17;110.67;;;;;;;2.30;100.00;99575.44;342057;28;1173;-69
2022/03/07 00:14:06;;;;;;;384.40;112.43;;;;;;;2.31;100.00;99578.00;345189;28;1019;-69
2022/03/07 00:14:16;;;;;;;387.60;112.33;;;;;;;2.32;100.00;99579.72;342362;28;1104;-69
2022/03/07 00:14:26;;;;;;;389.95;112.07;;;;;;;2.32;100.00;99579.72;343639;28;897;-69
2022/03/07 00:14:37;;;;;;;392.67;111.83;;;;;;;2.34;100.00;99588.31;341350;28;1218;-69
2022/03/07 00:14:48;;;;;;;389.52;111.63;;;;;;;2.33;100.00;99578.84;342468;28;836;-69
2022/03/07 00:14:58;;;;;;;390.35;111.38;;;;;;;2.34;100.00;99583.13;344017;28;917;-70
2022/03/07 00:15:09;;;;;;;390.42;112.05;;;;;;;2.35;100.00;99578.84;341023;28;941;-69
2022/03/07 00:15:19;;;;;;;391.93;111.53;;;;;;;2.36;100.00;99579.69;341708;28;857;-69
2022/03/07 00:15:30;;;;;;;387.48;111.28;;;;;;;2.35;100.00;99578.84;342499;28;1192;-69
2022/03/07 00:15:40;;;;;;;385.80;110.47;;;;;;;2.34;100.00;99577.13;342613;28;1063;-69
2022/03/07 00:15:51;;;;;;;385.77;109.38;;;;;;;2.36;100.00;99577.09;340173;28;1049;-69
2022/03/07 00:16:02;;;;;;;391.30;110.23;;;;;;;2.36;100.00;99577.09;339712;29;897;-69
2022/03/07 00:16:13;;;;;;;395.55;111.82;;;;;;;2.34;100.00;99577.97;339357;29;862;-69
2022/03/07 00:16:23;;;;;;;391.70;112.27;;;;;;;2.36;100.00;99579.69;341413;28;1288;-70
2022/03/07 00:16:33;;;;;;;388.65;110.28;;;;;;;2.36;100.00;99574.53;342326;28;893;-69
2022/03/07 00:16:44;;;;;;;384.07;109.10;;;;;;;2.36;100.00;99570.22;341133;28;976;-69
2022/03/07 00:16:54;;;;;;;385.88;109.55;;;;;;;2.36;100.00;99575.38;342317;28;1152;-69
2022/03/07 00:17:05;;;;;;;387.60;110.57;;;;;;;2.36;100.00;99574.53;342012;28;913;-69
2022/03/07 00:17:15;;;;;;;389.95;110.45;;;;;;;2.35;100.00;99573.66;342523;28;838;-69
2022/03/07 00:17:26;;;;;;;390.13;110.80;;;;;;;2.36;100.00;99569.34;343285;28;1445;-69
2022/03/07 00:17:36;;;;;;;390.60;110.68;;;;;;;2.34;100.00;99567.66;343482;28;1280;-69
2022/03/07 00:17:46;;;;;;;392.80;109.93;;;;;;;2.34;100.00;99577.13;343356;28;925;-69
2022/03/07 00:17:57;;;;;;;393.05;110.28;;;;;;;2.33;100.00;99570.25;340884;28;2000;-69
2022/03/07 00:18:07;;;;;;;391.53;109.37;;;;;;;2.31;100.00;99572.84;339440;29;855;-69
2022/03/07 00:18:17;;;;;;;388.65;109.53;;;;;;;2.32;100.00;99571.09;339532;29;941;-69
2022/03/07 00:18:28;;;;;;;388.37;108.93;;;;;;;2.32;100.00;99569.38;341877;28;1076;-69
2022/03/07 00:18:38;;;;;;;389.93;110.83;;;;;;;2.33;100.00;99576.25;342138;28;790;-69
2022/03/07 00:18:49;;;;;;;393.80;113.60;;;;;;;2.33;100.00;99571.09;343175;28;1188;-69
2022/03/07 00:18:59;;;;;;;395.60;115.77;;;;;;;2.32;100.00;99571.97;340192;28;794;-69
2022/03/07 00:19:10;;;;;;;394.45;115.03;;;;;;;2.32;100.00;99571.97;339875;29;872;-69
2022/03/07 00:19:20;;;;;;;394.27;114.07;;;;;;;2.33;100.00;99576.25;340865;28;1178;-69
2022/03/07 00:19:30;;;;;;;392.90;112.65;;;;;;;2.33;100.00;99571.09;342598;28;1343;-69
2022/03/07 00:19:41;;;;;;;388.33;111.43;;;;;;;2.34;100.00;99575.38;342623;28;834;-69
2022/03/07 00:19:51;;;;;;;386.48;110.47;;;;;;;2.36;100.00;99574.53;341076;28;1292;-69
2022/03/07 00:20:02;;;;;;;387.67;109.73;;;;;;;2.33;100.00;99578.84;342496;28;971;-69
2022/03/07 00:20:13;;;;;;;385.65;109.50;;;;;;;2.32;100.00;99569.38;342564;28;1379;-69
2022/03/07 00:20:23;;;;;;;383.92;108.95;;;;;;;2.33;100.00;99584.00;339651;28;1291;-69
2022/03/07 00:20:33;;;;;;;385.97;108.50;;;;;;;2.32;100.00;99577.13;342232;28;1203;-69
2022/03/07 00:20:44;;;;;;;385.67;108.72;;;;;;;2.31;100.00;99570.25;342671;28;1215;-69
2022/03/07 00:20:55;;;;;;;387.20;110.27;;;;;;;2.31;100.00;99570.25;342575;28;946;-69
2022/03/07 00:21:06;;;;;;;386.27;111.32;;;;;;;2.33;100.00;99578.84;339704;28;1313;-69
2022/03/07 00:21:16;;;;;;;389.50;111.75;;;;;;;2.32;100.00;99574.53;339258;28;1430;-69
2022/03/07 00:21:27;;;;;;;391.57;113.03;;;;;;;2.31;100.00;99577.13;340678;28;1323;-69
2022/03/07 00:21:37;;;;;;;394.30;113.93;;;;;;;2.32;100.00;99579.72;342613;28;888;-69
2022/03/07 00:21:48;;;;;;;392.70;114.60;;;;;;;2.33;100.00;99575.41;342184;28;1910;-69
2022/03/07 00:21:58;;;;;;;390.70;113.25;;;;;;;2.34;100.00;99569.38;339887;28;1356;-69
2022/03/07 00:22:09;;;;;;;394.73;112.47;;;;;;;2.33;100.00;99572.81;339665;29;1276;-69
2022/03/07 00:22:19;;;;;;;394.58;111.90;;;;;;;2.34;100.00;99577.97;339683;29;1320;-69
2022/03/07 00:22:30;;;;;;;392.00;110.93;;;;;;;2.36;100.00;99579.69;340936;28;830;-69
2022/03/07 00:22:40;;;;;;;390.55;110.68;;;;;;;2.34;100.00;99577.97;339743;28;2312;-69
2022/03/07 00:22:50;;;;;;;398.73;112.03;;;;;;;2.32;100.00;99577.13;342038;28;1224;-69
2022/03/07 00:23:01;;;;;;;400.25;114.15;;;;;;;2.32;100.00;99579.72;341487;28;858;-69
2022/03/07 00:23:11;;;;;;;396.43;113.43;;;;;;;2.32;100.00;99579.72;341892;28;886;-69
2022/03/07 00:23:22;;;;;;;395.35;112.75;;;;;;;2.31;100.00;99583.16;340824;28;1296;-68
2022/03/07 00:23:32;;;;;;;392.93;111.93;;;;;;;2.31;100.00;99583.16;341180;28;886;-68
2022/03/07 00:23:42;;;;;;;393.58;114.20;;;;;;;2.32;100.00;99577.13;340763;28;830;-68
2022/03/07 00:23:53;;;;;;;391.03;115.30;;;;;;;2.32;100.00;99576.28;338686;28;1329;-69
2022/03/07 00:24:04;;;;;;;393.33;116.13;;;;;;;2.30;100.00;99575.44;339746;28;1236;-69
2022/03/07 00:24:15;;;;;;;388.95;113.18;;;;;;;2.29;100.00;99573.72;338517;29;1187;-69
2022/03/07 00:24:25;;;;;;;382.03;110.17;;;;;;;2.27;100.00;99573.72;338485;29;790;-69
2022/03/07 00:24:35;;;;;;;377.00;107.53;;;;;;;2.28;100.00;99572.84;340982;28;1334;-69
2022/03/07 00:24:46;;;;;;;383.33;110.03;;;;;;;2.25;100.00;99572.88;342672;28;1243;-69
2022/03/07 00:24:56;;;;;;;389.23;110.60;;;;;;;2.27;100.00;99573.72;342811;28;1236;-69
2022/03/07 00:25:07;;;;;;;391.97;111.90;;;;;;;2.26;100.00;99573.75;342163;28;1357;-69
2022/03/07 00:25:18;;;;;;;385.48;109.90;;;;;;;2.28;100.00;99578.03;339891;28;830;-69
2022/03/07 00:25:28;;;;;;;389.38;112.20;;;;;;;2.28;100.00;99575.44;339906;28;927;-69
2022/03/07 00:25:39;;;;;;;392.50;112.07;;;;;;;2.28;100.00;99572.84;343755;28;1273;-69
2022/03/07 00:25:49;;;;;;;395.77;113.23;;;;;;;2.29;100.00;99577.16;345203;28;970;-69
2022/03/07 00:25:59;;;;;;;394.10;112.63;;;;;;;2.29;100.00;99573.72;345246;28;1310;-69
2022/03/07 00:26:10;;;;;;;389.05;112.75;;;;;;;2.29;100.00;99573.72;343238;28;828;-69
2022/03/07 00:26:20;;;;;;;389.70;112.23;;;;;;;2.29;100.00;99577.16;339704;28;1263;-68
2022/03/07 00:26:31;;;;;;;382.63;111.10;;;;;;;2.30;100.00;99576.28;339096;29;907;-68
2022/03/07 00:26:41;;;;;;;384.88;110.90;;;;;;;2.30;100.00;99581.44;341224;28;907;-68
2022/03/07 00:26:52;;;;;;;385.37;111.07;;;;;;;2.32;100.00;99576.28;342506;28;892;-68
2022/03/07 00:27:04;;;;;;;387.60;110.47;;;;;;;2.32;100.00;99573.69;341490;28;870;-69
2022/03/07 00:27:14;;;;;;;391.05;110.93;;;;;;;2.30;100.00;99571.13;340962;28;1304;-69
2022/03/07 00:27:25;;;;;;;393.63;112.67;;;;;;;2.31;100.00;99572.84;339555;29;1409;-69
2022/03/07 00:27:35;;;;;;;388.77;113.13;;;;;;;2.32;100.00;99578.84;338892;29;1665;-69
2022/03/07 00:27:46;;;;;;;384.97;112.10;;;;;;;2.33;100.00;99581.44;341112;28;794;-69
2022/03/07 00:27:56;;;;;;;380.80;110.53;;;;;;;2.33;100.00;99570.25;339882;29;915;-69
2022/03/07 00:28:06;;;;;;;384.13;110.17;;;;;;;2.33;100.00;99571.09;339541;29;992;-69
2022/03/07 00:28:17;;;;;;;381.67;110.78;;;;;;;2.34;100.00;99567.66;341116;28;976;-69
2022/03/07 00:28:27;;;;;;;383.27;111.67;;;;;;;2.34;100.00;99575.38;341915;28;936;-69
2022/03/07 00:28:38;;;;;;;384.38;112.50;;;;;;;2.34;100.00;99577.97;340208;28;865;-69
2022/03/07 00:28:48;;;;;;;381.80;111.57;;;;;;;2.36;100.00;99575.38;339042;28;1378;-69
2022/03/07 00:28:58;;;;;;;382.17;110.43;;;;;;;2.37;100.00;99571.06;340037;28;1361;-69
2022/03/07 00:29:09;;;;;;;383.93;110.00;;;;;;;2.36;100.00;99574.53;342455;28;805;-69
2022/03/07 00:29:19;;;;;;;389.52;111.40;;;;;;;2.34;100.00;99572.81;342132;28;1330;-69
2022/03/07 00:29:30;;;;;;;390.10;112.30;;;;;;;2.36;100.00;99571.94;341227;28;1165;-69
2022/03/07 00:29:40;;;;;;;384.90;111.40;;;;;;;2.33;100.00;99571.09;341164;28;938;-70
2022/03/07 00:29:50;;;;;;;380.25;110.18;;;;;;;2.31;100.00;99570.25;342498;28;861;-69
2022/03/07 00:30:02;;;;;;;377.63;108.13;;;;;;;2.32;100.00;99571.97;341155;28;1205;-69
2022/03/07 00:30:15;;;;;;;382.17;108.20;;;;;;;2.33;100.00;99576.25;342561;28;1441;-69
2022/03/07 00:30:26;;;;;;;381.23;107.97;;;;;;;2.33;100.00;99568.50;342446;28;1281;-69
2022/03/07 00:30:36;;;;;;;383.33;109.10;;;;;;;2.34;100.00;99575.38;341047;28;1215;-69
2022/03/07 00:30:46;;;;;;;385.83;109.13;;;;;;;2.34;100.00;99571.94;344049;28;1585;-68
2022/03/07 00:30:57;;;;;;;387.73;109.38;;;;;;;2.33;100.00;99565.94;341196;28;852;-69
2022/03/07 00:31:07;;;;;;;384.50;109.87;;;;;;;2.33;100.00;99570.25;340625;28;1936;-68
2022/03/07 00:31:19;;;;;;;381.02;109.40;;;;;;;2.32;100.00;99564.22;339321;28;1394;-68
2022/03/07 00:31:30;;;;;;;376.35;108.90;;;;;;;2.33;100.00;99565.94;343694;28;1521;-68
2022/03/07 00:31:40;;;;;;;380.77;109.17;;;;;;;2.33;100.00;99572.81;343779;28;970;-68
2022/03/07 00:31:51;;;;;;;379.58;108.68;;;;;;;2.32;100.00;99569.38;341349;28;2263;-68
2022/03/07 00:32:01;;;;;;;384.37;108.83;;;;;;;2.31;100.00;99572.84;341384;28;870;-69
2022/03/07 00:32:11;;;;;;;382.00;107.38;;;;;;;2.29;100.00;99572.00;342409;28;965;-69
2022/03/07 00:32:22;;;;;;;383.50;107.73;;;;;;;2.30;100.00;99571.13;343253;28;2362;-69
2022/03/07 00:32:32;;;;;;;378.63;106.80;;;;;;;2.31;100.00;99572.84;343927;28;1279;-69
2022/03/07 00:32:43;;;;;;;381.53;107.37;;;;;;;2.29;100.00;99568.56;341868;28;1207;-69
2022/03/07 00:32:53;;;;;;;383.65;108.57;;;;;;;2.26;100.00;99571.16;342392;28;1081;-69
2022/03/07 00:33:04;;;;;;;385.67;109.20;;;;;;;2.29;100.00;99571.13;338853;28;1401;-69
2022/03/07 00:33:16;;;;;;;383.60;108.67;;;;;;;2.27;100.00;99571.16;341358;28;1217;-69
2022/03/07 00:33:26;;;;;;;382.08;108.55;;;;;;;2.28;100.00;99567.69;344725;28;927;-68
2022/03/07 00:33:37;;;;;;;384.80;110.75;;;;;;;2.29;100.00;99568.56;341561;28;1206;-68
2022/03/07 00:33:47;;;;;;;381.53;111.07;;;;;;;2.28;100.00;99565.09;340465;28;1251;-68
2022/03/07 00:33:58;;;;;;;382.83;111.68;;;;;;;2.27;100.00;99565.97;339768;28;1100;-68
2022/03/07 00:34:08;;;;;;;383.33;109.13;;;;;;;2.28;100.00;99567.69;341152;28;929;-68
2022/03/07 00:34:18;;;;;;;385.58;108.60;;;;;;;2.27;100.00;99568.56;341068;28;1022;-68
2022/03/07 00:34:29;;;;;;;381.60;106.67;;;;;;;2.29;100.00;99572.00;343844;28;1308;-68
2022/03/07 00:34:39;;;;;;;385.48;108.10;;;;;;;2.28;100.00;99572.84;340928;28;1296;-68
2022/03/07 00:34:50;;;;;;;386.27;110.10;;;;;;;2.28;100.00;99572.00;343751;28;1176;-70
2022/03/07 00:35:00;;;;;;;389.30;110.78;;;;;;;2.26;100.00;99564.28;341000;28;1101;-68
2022/03/07 00:35:11;;;;;;;391.13;111.77;;;;;;;2.27;100.00;99568.56;339471;29;1683;-68
2022/03/07 00:35:21;;;;;;;398.35;111.40;;;;;;;2.25;100.00;99562.56;340931;28;1999;-68
2022/03/07 00:35:31;;;;;;;395.53;112.03;;;;;;;2.24;100.00;99568.59;339933;29;893;-68
2022/03/07 00:35:42;;;;;;;397.27;112.25;;;;;;;2.24;100.00;99565.16;341001;28;1089;-68
2022/03/07 00:35:53;;;;;;;391.03;112.90;;;;;;;2.25;100.00;99562.56;340119;28;1070;-68
2022/03/07 00:36:04;;;;;;;384.83;110.85;;;;;;;2.27;100.00;99567.72;340942;28;1351;-68
2022/03/07 00:36:14;;;;;;;379.15;109.93;;;;;;;2.26;100.00;99563.41;344119;28;1567;-68
2022/03/07 00:36:25;;;;;;;383.73;109.23;;;;;;;2.27;100.00;99563.41;343739;28;1394;-68
2022/03/07 00:36:36;;;;;;;387.10;110.13;;;;;;;2.27;100.00;99565.97;341010;28;893;-70
2022/03/07 00:36:46;;;;;;;390.13;109.78;;;;;;;2.28;100.00;99567.69;341159;28;1198;-69
2022/03/07 00:36:57;;;;;;;388.03;110.27;;;;;;;2.29;100.00;99563.38;341103;28;878;-69
2022/03/07 00:37:07;;;;;;;387.27;110.77;;;;;;;2.29;100.00;99559.06;339412;28;1528;-69
2022/03/07 00:37:18;;;;;;;388.02;110.30;;;;;;;2.29;100.00;99566.81;340496;28;1623;-69
2022/03/07 00:37:28;;;;;;;383.55;109.45;;;;;;;2.28;100.00;99565.09;340986;28;738;-69
2022/03/07 00:37:38;;;;;;;380.70;108.10;;;;;;;2.29;100.00;99564.25;340274;28;1381;-68
2022/03/07 00:37:49;;;;;;;378.47;108.73;;;;;;;2.29;100.00;99564.25;343935;28;1485;-68
2022/03/07 00:37:59;;;;;;;378.17;108.80;;;;;;;2.30;100.00;99567.69;343656;28;1223;-68
2022/03/07 00:38:10;;;;;;;380.83;110.03;;;;;;;2.29;100.00;99574.56;342587;28;1986;-68
2022/03/07 00:38:20;;;;;;;382.52;110.03;;;;;;;2.29;100.00;99563.38;343935;28;888;-69
2022/03/07 00:38:31;;;;;;;383.03;109.20;;;;;;;2.30;100.00;99560.78;342773;28;976;-69
2022/03/07 00:38:41;;;;;;;380.13;107.60;;;;;;;2.30;100.00;99559.94;341876;28;687;-69
2022/03/07 00:38:52;;;;;;;378.52;106.88;;;;;;;2.29;100.00;99558.22;341705;28;1225;-69
2022/03/07 00:39:02;;;;;;;379.47;108.10;;;;;;;2.28;100.00;99562.53;341686;28;1361;-69
2022/03/07 00:39:12;;;;;;;383.33;108.95;;;;;;;2.28;100.00;99564.25;341920;28;1078;-69
2022/03/07 00:39:23;;;;;;;385.30;108.83;;;;;;;2.25;100.00;99567.72;340452;28;1219;-69
2022/03/07 00:39:33;;;;;;;385.20;108.83;;;;;;;2.27;100.00;99562.53;339889;29;1383;-69
2022/03/07 00:39:44;;;;;;;387.63;109.70;;;;;;;2.27;100.00;99565.13;341071;28;1495;-69
2022/03/07 00:39:54;;;;;;;385.73;109.67;;;;;;;2.27;100.00;99559.97;341091;28;1336;-69
2022/03/07 00:40:06;;;;;;;381.65;109.13;;;;;;;2.27;100.00;99560.81;341160;28;889;-69
2022/03/07 00:40:16;;;;;;;379.70;108.53;;;;;;;2.27;100.00;99560.81;339675;29;834;-69
2022/03/07 00:40:27;;;;;;;383.40;109.67;;;;;;;2.28;100.00;99561.66;342116;28;1094;-69
2022/03/07 00:40:37;;;;;;;388.40;109.88;;;;;;;2.28;100.00;99561.66;341779;28;985;-69
2022/03/07 00:40:47;;;;;;;388.60;110.13;;;;;;;2.27;100.00;99555.66;343901;28;829;-69
2022/03/07 00:40:58;;;;;;;386.42;109.63;;;;;;;2.29;100.00;99566.81;342449;28;1212;-70
2022/03/07 00:41:09;;;;;;;383.80;109.27;;;;;;;2.29;100.00;99564.25;338616;29;893;-69
2022/03/07 00:41:19;;;;;;;380.33;108.03;;;;;;;2.29;100.00;99565.97;339677;29;901;-69
2022/03/07 00:41:29;;;;;;;377.02;107.80;;;;;;;2.29;100.00;99564.25;341110;28;869;-69
2022/03/07 00:41:40;;;;;;;379.73;108.00;;;;;;;2.28;100.00;99556.50;342990;28;1391;-69
2022/03/07 00:41:50;;;;;;;381.83;109.45;;;;;;;2.26;100.00;99559.09;342130;28;2030;-69
2022/03/07 00:42:01;;;;;;;385.73;109.87;;;;;;;2.27;100.00;99558.22;339593;29;1914;-69
2022/03/07 00:42:11;;;;;;;382.98;109.50;;;;;;;2.28;100.00;99556.50;341545;28;1215;-69
2022/03/07 00:42:22;;;;;;;384.80;108.70;;;;;;;2.29;100.00;99558.22;343754;28;1224;-69
2022/03/07 00:42:32;;;;;;;380.55;107.90;;;;;;;2.28;100.00;99554.78;344250;28;1401;-69
2022/03/07 00:42:42;;;;;;;379.60;108.03;;;;;;;2.29;100.00;99559.06;342204;28;831;-69
2022/03/07 00:42:53;;;;;;;376.90;107.07;;;;;;;2.28;100.00;99559.94;343669;28;1427;-69
2022/03/07 00:43:07;;;;;;;376.80;107.47;;;;;;;2.28;100.00;99562.53;342584;28;1332;-69
2022/03/07 00:43:21;;;;;;;377.88;107.25;;;;;;;2.28;100.00;99565.09;340664;28;885;-69
2022/03/07 00:43:32;;;;;;;379.42;108.05;;;;;;;2.26;100.00;99555.66;340054;28;928;-70
2022/03/07 00:43:42;;;;;;;377.55;107.18;;;;;;;2.24;100.00;99562.56;339099;28;961;-69
2022/03/07 00:43:53;;;;;;;379.42;108.05;;;;;;;2.21;100.00;99560.88;336906;29;1250;-69
2022/03/07 00:44:03;;;;;;;374.83;105.63;;;;;;;2.21;100.00;99562.59;338566;29;1174;-69
2022/03/07 00:44:13;;;;;;;373.85;104.50;;;;;;;2.21;100.00;99557.44;341128;28;1041;-70
2022/03/07 00:44:24;;;;;;;373.27;103.70;;;;;;;2.20;100.00;99556.56;341344;28;949;-69
2022/03/07 00:44:34;;;;;;;376.23;104.83;;;;;;;2.21;100.00;99560.00;342926;28;852;-69
2022/03/07 00:44:45;;;;;;;380.25;105.38;;;;;;;2.20;100.00;99558.28;344057;28;905;-69
2022/03/07 00:44:55;;;;;;;382.90;105.40;;;;;;;2.21;100.00;99562.59;342211;28;1881;-69
2022/03/07 00:45:06;;;;;;;383.73;106.03;;;;;;;2.23;100.00;99560.84;341048;28;2066;-69
2022/03/07 00:45:17;;;;;;;379.52;107.40;;;;;;;2.22;100.00;99567.75;342305;28;1266;-69
2022/03/07 00:45:27;;;;;;;374.55;108.07;;;;;;;2.23;100.00;99559.13;343729;28;868;-69
2022/03/07 00:45:38;;;;;;;372.50;106.93;;;;;;;2.22;100.00;99557.41;342746;28;1863;-69
2022/03/07 00:45:48;;;;;;;372.23;105.15;;;;;;;2.21;100.00;99560.88;342250;28;1220;-69
2022/03/07 00:45:58;;;;;;;370.97;103.53;;;;;;;2.20;100.00;99559.16;340934;28;876;-69
2022/03/07 00:46:09;;;;;;;368.83;103.50;;;;;;;2.20;100.00;99561.72;341245;28;937;-69
2022/03/07 00:46:20;;;;;;;370.63;104.03;;;;;;;2.19;100.00;99566.91;340990;28;1082;-69
2022/03/07 00:46:30;;;;;;;374.60;107.05;;;;;;;2.19;100.00;99557.44;342973;28;1359;-69
2022/03/07 00:46:41;;;;;;;374.88;108.22;;;;;;;2.19;100.00;99562.59;342883;28;1463;-69
2022/03/07 00:46:51;;;;;;;373.00;108.77;;;;;;;2.18;100.00;99560.88;342342;28;938;-70
2022/03/07 00:47:01;;;;;;;374.35;108.07;;;;;;;2.16;100.00;99560.06;343242;28;966;-70
2022/03/07 00:47:12;;;;;;;382.07;109.13;;;;;;;2.17;100.00;99561.75;341914;28;1447;-69
2022/03/07 00:47:22;;;;;;;390.88;109.82;;;;;;;2.18;100.00;99566.06;340957;28;948;-69
2022/03/07 00:47:34;;;;;;;388.23;109.10;;;;;;;2.20;100.00;99558.28;342221;28;1262;-69
2022/03/07 00:47:44;;;;;;;383.40;108.07;;;;;;;2.19;100.00;99562.59;340722;28;1531;-69
2022/03/07 00:47:55;;;;;;;377.73;107.23;;;;;;;2.19;100.00;99562.59;339687;29;885;-69
2022/03/07 00:48:05;;;;;;;380.67;107.30;;;;;;;2.20;100.00;99561.72;342391;28;1357;-69
2022/03/07 00:48:16;;;;;;;379.10;107.03;;;;;;;2.22;100.00;99557.41;342084;28;1327;-69
2022/03/07 00:48:26;;;;;;;378.17;107.20;;;;;;;2.23;100.00;99558.28;343328;28;1227;-69
2022/03/07 00:48:37;;;;;;;375.37;108.33;;;;;;;2.22;100.00;99562.56;339243;28;1396;-69
2022/03/07 00:48:47;;;;;;;374.37;109.20;;;;;;;2.21;100.00;99560.88;339282;28;850;-69